Time;durP1;ratioP1;P1;durP2;ratioP2;P2;SDS_P1;SDS_P2;PMS_P1;PMS_P2;Temp;Humidity;BMP_temperature;BMP_pressure;BME280_temperature;BME280_humidity;BME280_pressure;Samples;Min_cycle;Max_cycle;Signal;HPM_P1;HPM_P2
2023/12/24 00:01:10;;;;;;;15.95;5.65;;;;;;;;;;5029513;28;20225;-81
2023/12/24 00:03:37;;;;;;;18.97;5.80;;;;;;;;;;5037227;28;20576;-80
2023/12/24 00:06:02;;;;;;;19.08;5.50;;;;;;;;;;5038693;28;20236;-79
2023/12/24 00:08:31;;;;;;;20.33;6.40;;;;;;;;;;5004988;28;20198;-80
2023/12/24 00:10:57;;;;;;;21.10;6.13;;;;;;;;;;5005367;28;20241;-79
2023/12/24 00:13:23;;;;;;;18.58;5.82;;;;;;;;;;5022996;28;20186;-80
2023/12/24 00:15:49;;;;;;;17.67;5.57;;;;;;;;;;5020244;28;20226;-79
2023/12/24 00:18:14;;;;;;;12.52;5.13;;;;;;;;;;5020436;28;20321;-80
2023/12/24 00:20:40;;;;;;;14.07;5.10;;;;;;;;;;5012420;28;20263;-80
2023/12/24 00:23:10;;;;;;;17.90;4.97;;;;;;;;;;5029079;28;20187;-80
2023/12/24 00:25:37;;;;;;;16.08;4.97;;;;;;;;;;5014737;28;20186;-82
2023/12/24 00:28:03;;;;;;;15.05;4.68;;;;;;;;;;5033593;28;20441;-81
2023/12/24 00:30:29;;;;;;;16.10;5.38;;;;;;;;;;5016046;28;20250;-80
2023/12/24 00:32:55;;;;;;;13.98;4.70;;;;;;;;;;4998614;28;20262;-81
2023/12/24 00:35:21;;;;;;;12.35;4.63;;;;;;;;;;5016984;28;20182;-80
2023/12/24 00:37:50;;;;;;;16.10;5.38;;;;;;;;;;5022688;28;20213;-80
2023/12/24 00:40:17;;;;;;;15.30;5.68;;;;;;;;;;5013702;28;20206;-80
2023/12/24 00:42:42;;;;;;;15.10;5.28;;;;;;;;;;5001412;28;20183;-79
2023/12/24 00:45:11;;;;;;;13.90;5.88;;;;;;;;;;5021279;28;20181;-80
2023/12/24 00:47:38;;;;;;;12.88;6.55;;;;;;;;;;5001765;28;20178;-79
2023/12/24 00:50:07;;;;;;;16.67;5.10;;;;;;;;;;5035341;28;20196;-79
2023/12/24 00:52:34;;;;;;;14.38;4.93;;;;;;;;;;5020746;28;20213;-79
2023/12/24 00:55:00;;;;;;;11.75;4.90;;;;;;;;;;5031834;28;20200;-80
2023/12/24 00:57:25;;;;;;;15.57;4.90;;;;;;;;;;5036026;28;20266;-79
2023/12/24 00:59:51;;;;;;;14.45;5.25;;;;;;;;;;5013936;28;20240;-79
2023/12/24 01:02:16;;;;;;;11.85;4.65;;;;;;;;;;5029947;28;20205;-79
2023/12/24 01:04:42;;;;;;;12.77;4.00;;;;;;;;;;4999370;28;20252;-79
2023/12/24 01:07:08;;;;;;;17.92;4.10;;;;;;;;;;5011590;28;20218;-79
2023/12/24 01:09:36;;;;;;;12.23;3.85;;;;;;;;;;5024603;28;20231;-79
2023/12/24 01:12:02;;;;;;;12.32;3.90;;;;;;;;;;5001395;28;20212;-80
2023/12/24 01:14:27;;;;;;;14.30;3.72;;;;;;;;;;5010121;28;20182;-80
2023/12/24 01:16:53;;;;;;;16.27;3.72;;;;;;;;;;5027436;28;20742;-79
2023/12/24 01:19:18;;;;;;;9.32;3.47;;;;;;;;;;5027572;28;20766;-79
2023/12/24 01:21:44;;;;;;;13.10;4.07;;;;;;;;;;5016388;28;20283;-78
2023/12/24 01:24:09;;;;;;;6.93;3.03;;;;;;;;;;5034824;28;20264;-79
2023/12/24 01:26:36;;;;;;;10.82;3.47;;;;;;;;;;5022381;28;20658;-77
2023/12/24 01:29:02;;;;;;;13.63;3.38;;;;;;;;;;5019977;28;20190;-79
2023/12/24 01:31:28;;;;;;;11.43;3.13;;;;;;;;;;5025934;28;20244;-80
2023/12/24 01:33:53;;;;;;;10.90;3.78;;;;;;;;;;5004185;28;20260;-78
2023/12/24 01:36:19;;;;;;;10.82;2.70;;;;;;;;;;5021089;28;20198;-77
2023/12/24 01:38:45;;;;;;;11.52;2.80;;;;;;;;;;5027577;28;20182;-78
2023/12/24 01:41:12;;;;;;;11.10;2.70;;;;;;;;;;5028773;28;20562;-76
2023/12/24 01:43:40;;;;;;;10.95;2.67;;;;;;;;;;5028669;28;20182;-76
2023/12/24 01:46:05;;;;;;;9.07;2.47;;;;;;;;;;5027247;28;20184;-77
2023/12/24 01:48:30;;;;;;;12.05;2.58;;;;;;;;;;5026974;28;20186;-78
2023/12/24 01:50:57;;;;;;;11.27;2.50;;;;;;;;;;5015652;28;20238;-77
2023/12/24 01:53:22;;;;;;;8.30;2.20;;;;;;;;;;5017694;28;20818;-78
2023/12/24 01:55:48;;;;;;;9.18;4.20;;;;;;;;;;5006578;28;20191;-77
2023/12/24 01:58:14;;;;;;;10.60;2.42;;;;;;;;;;5031605;28;20190;-78
2023/12/24 02:00:41;;;;;;;12.65;2.45;;;;;;;;;;5013445;28;20221;-80
2023/12/24 02:03:08;;;;;;;10.75;2.55;;;;;;;;;;5029438;28;20630;-77
2023/12/24 02:05:34;;;;;;;12.63;2.25;;;;;;;;;;5010335;28;20175;-76
2023/12/24 02:08:01;;;;;;;11.75;2.55;;;;;;;;;;4996001;28;20251;-80
2023/12/24 02:10:27;;;;;;;10.05;2.08;;;;;;;;;;5029972;28;20190;-79
2023/12/24 02:12:53;;;;;;;10.05;2.15;;;;;;;;;;5013147;28;20514;-77
2023/12/24 02:15:18;;;;;;;9.40;2.05;;;;;;;;;;5012733;28;20186;-78
2023/12/24 02:17:44;;;;;;;9.85;2.03;;;;;;;;;;5020511;28;20270;-79
2023/12/24 02:20:10;;;;;;;9.80;2.60;;;;;;;;;;5012904;28;20226;-78
2023/12/24 02:22:36;;;;;;;9.10;2.10;;;;;;;;;;5028608;28;20504;-76
2023/12/24 02:25:03;;;;;;;7.97;2.30;;;;;;;;;;4997763;28;20341;-79
2023/12/24 02:27:34;;;;;;;11.35;2.10;;;;;;;;;;5039292;28;20678;-78
2023/12/24 02:30:05;;;;;;;11.23;2.42;;;;;;;;;;5034971;28;20316;-79
2023/12/24 02:32:34;;;;;;;10.75;2.30;;;;;;;;;;5034919;28;20256;-79
2023/12/24 02:35:02;;;;;;;5.95;2.22;;;;;;;;;;5019244;28;20185;-80
2023/12/24 02:37:29;;;;;;;8.50;2.13;;;;;;;;;;5019220;28;20186;-79
2023/12/24 02:39:54;;;;;;;9.73;2.65;;;;;;;;;;5028734;28;20190;-78
2023/12/24 02:42:20;;;;;;;6.43;1.90;;;;;;;;;;5028464;28;20215;-80
2023/12/24 02:44:45;;;;;;;5.85;2.35;;;;;;;;;;5021813;28;20185;-80
2023/12/24 02:47:10;;;;;;;6.70;2.08;;;;;;;;;;5005682;28;20182;-79
2023/12/24 02:49:36;;;;;;;11.50;2.17;;;;;;;;;;5019716;28;20190;-79
2023/12/24 02:52:01;;;;;;;7.43;2.13;;;;;;;;;;5029727;28;20212;-80
2023/12/24 02:54:27;;;;;;;5.22;2.05;;;;;;;;;;5034488;28;20182;-79
2023/12/24 02:56:52;;;;;;;6.82;1.73;;;;;;;;;;5003613;28;20178;-78
2023/12/24 02:59:18;;;;;;;9.27;2.42;;;;;;;;;;5038147;28;20193;-80
2023/12/24 03:01:44;;;;;;;7.70;2.47;;;;;;;;;;5021899;28;20214;-81
2023/12/24 03:04:09;;;;;;;6.75;2.38;;;;;;;;;;5022458;28;20182;-79
2023/12/24 03:06:35;;;;;;;6.05;2.17;;;;;;;;;;5021594;28;20178;-80
2023/12/24 03:09:00;;;;;;;6.13;2.50;;;;;;;;;;5018394;28;20196;-80
2023/12/24 03:11:26;;;;;;;7.85;2.58;;;;;;;;;;5038413;28;20269;-80
2023/12/24 03:13:52;;;;;;;5.93;2.83;;;;;;;;;;5027146;28;20178;-80
2023/12/24 03:16:17;;;;;;;8.63;2.90;;;;;;;;;;5020991;28;20226;-80
2023/12/24 03:18:43;;;;;;;7.30;3.03;;;;;;;;;;5004203;28;20230;-81
2023/12/24 03:21:08;;;;;;;6.50;2.88;;;;;;;;;;5019984;28;20291;-79
2023/12/24 03:23:34;;;;;;;8.38;2.83;;;;;;;;;;5034465;28;20197;-80
2023/12/24 03:25:59;;;;;;;11.55;2.95;;;;;;;;;;5036694;28;20277;-79
2023/12/24 03:28:25;;;;;;;7.75;3.40;;;;;;;;;;5020695;28;20213;-79
2023/12/24 03:30:50;;;;;;;12.00;3.67;;;;;;;;;;5000663;28;20589;-78
2023/12/24 03:33:16;;;;;;;9.23;3.10;;;;;;;;;;5026769;28;20265;-80
2023/12/24 03:35:43;;;;;;;7.80;3.22;;;;;;;;;;5020082;28;20281;-80
2023/12/24 03:38:08;;;;;;;7.25;3.38;;;;;;;;;;5022379;28;20178;-82
2023/12/24 03:40:34;;;;;;;7.80;3.08;;;;;;;;;;5010866;28;20209;-81
2023/12/24 03:42:59;;;;;;;8.60;3.38;;;;;;;;;;5038771;28;20265;-80
2023/12/24 03:45:25;;;;;;;7.38;3.15;;;;;;;;;;5021572;28;20541;-78
2023/12/24 03:47:50;;;;;;;6.63;3.00;;;;;;;;;;5014738;28;20556;-79
2023/12/24 03:50:16;;;;;;;6.65;3.28;;;;;;;;;;5019730;28;20190;-79
2023/12/24 03:52:41;;;;;;;6.47;3.50;;;;;;;;;;5018313;28;20305;-80
2023/12/24 03:55:08;;;;;;;8.30;3.42;;;;;;;;;;5018145;28;20198;-80
2023/12/24 03:57:33;;;;;;;6.75;3.38;;;;;;;;;;5001280;28;20198;-80
2023/12/24 03:59:58;;;;;;;6.18;3.50;;;;;;;;;;5036830;28;20198;-79
2023/12/24 04:02:24;;;;;;;7.78;3.15;;;;;;;;;;4994056;28;20209;-79
2023/12/24 04:04:50;;;;;;;5.32;3.38;;;;;;;;;;5031102;28;20202;-79
2023/12/24 04:07:16;;;;;;;8.80;3.63;;;;;;;;;;5014843;28;20281;-79
2023/12/24 04:09:42;;;;;;;6.28;3.30;;;;;;;;;;5027785;28;20197;-79
2023/12/24 04:12:09;;;;;;;3.63;2.83;;;;;;;;;;5034229;28;20213;-79
2023/12/24 04:14:38;;;;;;;5.38;3.05;;;;;;;;;;5018748;28;20188;-81
2023/12/24 04:17:05;;;;;;;6.38;2.90;;;;;;;;;;5018326;28;20224;-79
2023/12/24 04:19:30;;;;;;;4.22;3.20;;;;;;;;;;5029593;28;20617;-79
2023/12/24 04:21:56;;;;;;;3.30;2.60;;;;;;;;;;5013347;28;20629;-78
2023/12/24 04:24:21;;;;;;;3.30;2.78;;;;;;;;;;5015751;28;20187;-80
2023/12/24 04:26:47;;;;;;;4.65;2.92;;;;;;;;;;5024218;28;20204;-79
2023/12/24 04:29:13;;;;;;;4.95;3.03;;;;;;;;;;5018006;28;20189;-78
2023/12/24 04:31:39;;;;;;;4.03;3.00;;;;;;;;;;5032815;28;20193;-80
2023/12/24 04:34:06;;;;;;;3.28;2.00;;;;;;;;;;5013467;28;20229;-79
2023/12/24 04:36:35;;;;;;;4.10;2.72;;;;;;;;;;5014489;28;20198;-79
2023/12/24 04:39:02;;;;;;;3.25;2.08;;;;;;;;;;5020579;28;20237;-77
2023/12/24 04:41:28;;;;;;;2.38;2.00;;;;;;;;;;5034985;28;20649;-79
2023/12/24 04:43:56;;;;;;;5.97;2.40;;;;;;;;;;5000062;28;20202;-79
2023/12/24 04:46:22;;;;;;;2.97;2.40;;;;;;;;;;4985645;28;20201;-81
2023/12/24 04:48:47;;;;;;;3.80;2.58;;;;;;;;;;5022136;28;20194;-81
2023/12/24 04:51:13;;;;;;;2.72;1.90;;;;;;;;;;5000634;28;20180;-80
2023/12/24 04:53:38;;;;;;;2.72;2.10;;;;;;;;;;5000305;28;20185;-78
2023/12/24 04:56:04;;;;;;;3.70;2.15;;;;;;;;;;5005045;28;20189;-79
2023/12/24 04:58:29;;;;;;;3.10;2.03;;;;;;;;;;5018092;28;20198;-79
2023/12/24 05:00:57;;;;;;;2.80;1.70;;;;;;;;;;5015532;28;20210;-80
2023/12/24 05:03:22;;;;;;;2.90;1.92;;;;;;;;;;5018085;28;20190;-79
2023/12/24 05:05:48;;;;;;;2.17;1.75;;;;;;;;;;5002692;28;20232;-79
2023/12/24 05:08:13;;;;;;;4.07;1.85;;;;;;;;;;5001429;28;20185;-79
2023/12/24 05:10:39;;;;;;;2.88;1.60;;;;;;;;;;5007287;28;20193;-79
2023/12/24 05:13:04;;;;;;;1.70;1.25;;;;;;;;;;5040247;28;20200;-79
2023/12/24 05:15:30;;;;;;;3.90;1.52;;;;;;;;;;5022765;28;20189;-80
2023/12/24 05:17:55;;;;;;;3.17;1.75;;;;;;;;;;5024607;28;20214;-79
2023/12/24 05:20:21;;;;;;;3.95;1.42;;;;;;;;;;5037506;28;20244;-80
2023/12/24 05:22:46;;;;;;;3.22;1.40;;;;;;;;;;4999774;28;20201;-79
2023/12/24 05:25:13;;;;;;;2.75;1.50;;;;;;;;;;5003918;28;20194;-79
2023/12/24 05:27:39;;;;;;;2.05;1.50;;;;;;;;;;5005422;28;20247;-80
2023/12/24 05:30:06;;;;;;;2.97;1.25;;;;;;;;;;5017192;28;20273;-80
2023/12/24 05:32:31;;;;;;;2.90;1.65;;;;;;;;;;4996311;28;20611;-78
2023/12/24 05:34:57;;;;;;;1.85;1.17;;;;;;;;;;5018638;28;20190;-78
2023/12/24 05:37:22;;;;;;;3.03;1.30;;;;;;;;;;5035886;28;20305;-78
2023/12/24 05:39:48;;;;;;;2.03;1.52;;;;;;;;;;5000635;28;20509;-78
2023/12/24 05:42:13;;;;;;;1.55;1.30;;;;;;;;;;4998891;28;20618;-79
2023/12/24 05:44:39;;;;;;;1.38;1.27;;;;;;;;;;5035792;28;20261;-78
2023/12/24 05:47:04;;;;;;;1.70;1.30;;;;;;;;;;5038334;28;20198;-79
2023/12/24 05:49:30;;;;;;;2.03;1.40;;;;;;;;;;5021736;28;20273;-78
2023/12/24 05:51:55;;;;;;;1.90;1.30;;;;;;;;;;5014275;28;20199;-79
2023/12/24 05:54:21;;;;;;;2.85;1.33;;;;;;;;;;5039279;28;20332;-78
2023/12/24 05:56:46;;;;;;;1.98;1.48;;;;;;;;;;5016886;28;20255;-79
2023/12/24 05:59:12;;;;;;;2.63;1.65;;;;;;;;;;5027293;28;20194;-79
2023/12/24 06:01:37;;;;;;;1.15;1.05;;;;;;;;;;5015439;28;20724;-78
2023/12/24 06:04:03;;;;;;;1.52;1.20;;;;;;;;;;5015714;28;20285;-78
2023/12/24 06:06:29;;;;;;;1.23;1.13;;;;;;;;;;5019414;28;20178;-81
2023/12/24 06:08:54;;;;;;;1.70;1.13;;;;;;;;;;5027381;28;20194;-79
2023/12/24 06:11:20;;;;;;;1.33;1.23;;;;;;;;;;5029059;28;20198;-78
2023/12/24 06:13:45;;;;;;;2.55;1.20;;;;;;;;;;5027712;28;20281;-79
2023/12/24 06:16:12;;;;;;;1.20;0.95;;;;;;;;;;5014314;28;20229;-79
2023/12/24 06:18:40;;;;;;;1.30;1.10;;;;;;;;;;5036024;28;20725;-78
2023/12/24 06:21:06;;;;;;;2.28;0.90;;;;;;;;;;5014519;28;20570;-79
2023/12/24 06:23:32;;;;;;;1.25;1.10;;;;;;;;;;5033425;28;20672;-80
2023/12/24 06:25:58;;;;;;;1.10;1.00;;;;;;;;;;5003686;28;20208;-79
2023/12/24 06:28:24;;;;;;;1.00;0.90;;;;;;;;;;5013863;28;20210;-79
2023/12/24 06:30:50;;;;;;;1.58;1.30;;;;;;;;;;5013980;28;20546;-79
2023/12/24 06:33:15;;;;;;;1.42;1.20;;;;;;;;;;5015237;28;20197;-79
2023/12/24 06:35:40;;;;;;;1.73;1.20;;;;;;;;;;5035959;28;20248;-79
2023/12/24 06:38:06;;;;;;;1.33;1.13;;;;;;;;;;5036005;28;20189;-80
2023/12/24 06:40:33;;;;;;;1.83;1.20;;;;;;;;;;5018567;28;20190;-79
2023/12/24 06:43:00;;;;;;;1.25;1.15;;;;;;;;;;5002402;28;20190;-79
2023/12/24 06:45:26;;;;;;;1.20;1.10;;;;;;;;;;5031289;28;20205;-78
2023/12/24 06:47:51;;;;;;;1.85;1.40;;;;;;;;;;5017569;28;20183;-78
2023/12/24 06:50:17;;;;;;;1.30;1.20;;;;;;;;;;5036839;28;20205;-79
2023/12/24 06:52:43;;;;;;;1.10;1.10;;;;;;;;;;5034429;28;20245;-79
2023/12/24 06:55:08;;;;;;;2.42;1.58;;;;;;;;;;4986735;28;20228;-80
2023/12/24 06:57:34;;;;;;;1.88;1.70;;;;;;;;;;5003714;28;20328;-79
2023/12/24 06:59:59;;;;;;;2.38;1.48;;;;;;;;;;5032268;28;20183;-79
2023/12/24 07:02:25;;;;;;;1.85;1.35;;;;;;;;;;5003987;28;20213;-79
2023/12/24 07:04:50;;;;;;;1.73;1.50;;;;;;;;;;5016242;28;20190;-79
2023/12/24 07:07:15;;;;;;;2.58;1.45;;;;;;;;;;5037019;28;20229;-80
2023/12/24 07:09:41;;;;;;;1.90;1.70;;;;;;;;;;5016434;28;20213;-79
2023/12/24 07:12:07;;;;;;;1.40;1.30;;;;;;;;;;5018581;28;20180;-80
2023/12/24 07:14:32;;;;;;;2.75;1.50;;;;;;;;;;5018998;28;20198;-79
2023/12/24 07:16:58;;;;;;;1.95;1.27;;;;;;;;;;5000454;28;20193;-80
2023/12/24 07:19:23;;;;;;;2.08;1.60;;;;;;;;;;5031140;28;20309;-79
2023/12/24 07:21:49;;;;;;;3.75;1.50;;;;;;;;;;5018670;28;20202;-79
2023/12/24 07:24:14;;;;;;;2.67;1.67;;;;;;;;;;5034038;28;20226;-80
2023/12/24 07:26:40;;;;;;;1.52;1.42;;;;;;;;;;5037975;28;20253;-79
2023/12/24 07:29:05;;;;;;;2.35;1.80;;;;;;;;;;5035115;28;20192;-79
2023/12/24 07:31:31;;;;;;;2.88;2.00;;;;;;;;;;5018636;28;20186;-79
2023/12/24 07:33:56;;;;;;;2.78;1.80;;;;;;;;;;5021173;28;20209;-81
2023/12/24 07:36:22;;;;;;;1.60;1.50;;;;;;;;;;5019401;28;20186;-80
2023/12/24 07:38:47;;;;;;;1.85;1.60;;;;;;;;;;5029547;28;20225;-81
2023/12/24 07:41:12;;;;;;;2.20;1.30;;;;;;;;;;5018562;28;20264;-80
2023/12/24 07:43:38;;;;;;;4.30;1.50;;;;;;;;;;5018637;28;20548;-80
2023/12/24 07:46:03;;;;;;;2.35;1.60;;;;;;;;;;4995849;28;20182;-81
2023/12/24 07:48:29;;;;;;;1.65;1.55;;;;;;;;;;5037752;28;20190;-80
2023/12/24 07:50:55;;;;;;;3.88;1.60;;;;;;;;;;5016911;28;20198;-80
2023/12/24 07:53:20;;;;;;;1.67;1.33;;;;;;;;;;5030528;28;20203;-80
2023/12/24 07:55:46;;;;;;;2.33;1.50;;;;;;;;;;5018293;28;20174;-80
2023/12/24 07:58:11;;;;;;;2.75;1.98;;;;;;;;;;5037570;28;20367;-79
2023/12/24 08:00:36;;;;;;;2.17;1.92;;;;;;;;;;5023956;28;20511;-79
2023/12/24 08:03:02;;;;;;;2.17;1.77;;;;;;;;;;5032350;28;20221;-80
2023/12/24 08:05:28;;;;;;;2.05;1.83;;;;;;;;;;5028522;28;20695;-79
2023/12/24 08:07:53;;;;;;;1.58;1.48;;;;;;;;;;5032111;28;20190;-81
2023/12/24 08:10:18;;;;;;;3.63;2.10;;;;;;;;;;5034003;28;20646;-78
2023/12/24 08:12:44;;;;;;;3.03;1.80;;;;;;;;;;5017237;28;20182;-80
2023/12/24 08:15:10;;;;;;;2.55;1.83;;;;;;;;;;5033112;28;20224;-79
2023/12/24 08:17:40;;;;;;;3.47;2.00;;;;;;;;;;5012031;28;20190;-79
2023/12/24 08:20:07;;;;;;;2.85;1.85;;;;;;;;;;5015439;28;20351;-79
2023/12/24 08:22:34;;;;;;;4.88;2.35;;;;;;;;;;5018606;28;20206;-79
2023/12/24 08:25:00;;;;;;;3.78;2.03;;;;;;;;;;5016758;28;20194;-77
2023/12/24 08:27:25;;;;;;;3.55;1.80;;;;;;;;;;5016552;28;20205;-78
2023/12/24 08:29:51;;;;;;;3.72;1.80;;;;;;;;;;5031885;28;20256;-80
2023/12/24 08:32:17;;;;;;;2.63;1.90;;;;;;;;;;5002386;28;20178;-79
2023/12/24 08:34:42;;;;;;;3.67;2.40;;;;;;;;;;5015367;28;20621;-80
2023/12/24 08:37:08;;;;;;;2.45;1.63;;;;;;;;;;5028239;28;20190;-79
2023/12/24 08:39:33;;;;;;;1.80;1.58;;;;;;;;;;5020115;28;20253;-79
2023/12/24 08:41:59;;;;;;;2.58;1.85;;;;;;;;;;5025764;28;20230;-80
2023/12/24 08:44:24;;;;;;;4.45;1.80;;;;;;;;;;5028001;28;20190;-80
2023/12/24 08:46:55;;;;;;;2.58;2.03;;;;;;;;;;5031268;28;20232;-79
2023/12/24 08:49:23;;;;;;;5.05;1.95;;;;;;;;;;5029495;28;20194;-78
2023/12/24 08:51:48;;;;;;;4.78;2.10;;;;;;;;;;5014892;28;20361;-81
2023/12/24 08:54:14;;;;;;;3.65;1.73;;;;;;;;;;5035603;28;20206;-81
2023/12/24 08:56:40;;;;;;;4.35;2.15;;;;;;;;;;5029110;28;20199;-81
2023/12/24 08:59:07;;;;;;;3.95;2.10;;;;;;;;;;4998308;28;20623;-78
2023/12/24 09:01:33;;;;;;;3.97;1.90;;;;;;;;;;5009101;28;20225;-80
2023/12/24 09:03:59;;;;;;;5.20;2.08;;;;;;;;;;4995059;28;20183;-80
2023/12/24 09:06:24;;;;;;;4.30;1.90;;;;;;;;;;5018006;28;20216;-80
2023/12/24 09:08:50;;;;;;;4.45;2.28;;;;;;;;;;5018742;28;20186;-80
2023/12/24 09:11:15;;;;;;;4.70;2.25;;;;;;;;;;5004725;28;20190;-79
2023/12/24 09:13:41;;;;;;;4.07;2.17;;;;;;;;;;5016495;28;20212;-79
2023/12/24 09:16:07;;;;;;;3.47;1.88;;;;;;;;;;5022620;28;20261;-79
2023/12/24 09:18:33;;;;;;;4.78;2.38;;;;;;;;;;5028367;28;20601;-77
2023/12/24 09:20:59;;;;;;;8.05;2.03;;;;;;;;;;5027848;28;20218;-80
2023/12/24 09:23:24;;;;;;;4.07;2.05;;;;;;;;;;5032407;28;20187;-78
2023/12/24 09:25:50;;;;;;;2.90;1.70;;;;;;;;;;5019696;28;20268;-78
2023/12/24 09:28:15;;;;;;;5.05;2.13;;;;;;;;;;5033448;28;20293;-80
2023/12/24 09:30:41;;;;;;;3.55;1.60;;;;;;;;;;5015439;28;20187;-78
2023/12/24 09:33:06;;;;;;;6.60;1.70;;;;;;;;;;5016409;28;20211;-78
2023/12/24 09:35:32;;;;;;;4.25;1.40;;;;;;;;;;5030838;28;20213;-81
2023/12/24 09:37:58;;;;;;;3.28;1.40;;;;;;;;;;5026440;28;20186;-79
2023/12/24 09:40:24;;;;;;;3.85;1.30;;;;;;;;;;5018753;28;20909;-79
2023/12/24 09:42:50;;;;;;;3.13;1.35;;;;;;;;;;5030026;28;20313;-79
2023/12/24 09:45:16;;;;;;;3.30;1.27;;;;;;;;;;5026147;28;20221;-79
2023/12/24 09:47:41;;;;;;;3.38;1.13;;;;;;;;;;5030341;28;20190;-79
2023/12/24 09:50:07;;;;;;;3.17;1.20;;;;;;;;;;5011302;28;20210;-79
2023/12/24 09:52:36;;;;;;;2.65;1.20;;;;;;;;;;5016648;28;20664;-78
2023/12/24 09:55:03;;;;;;;2.47;1.10;;;;;;;;;;5027309;28;20198;-78
2023/12/24 09:57:28;;;;;;;1.70;1.00;;;;;;;;;;5009836;28;20225;-78
2023/12/24 09:59:54;;;;;;;1.20;1.00;;;;;;;;;;5010938;28;20191;-78
2023/12/24 10:02:19;;;;;;;2.65;0.80;;;;;;;;;;5015269;28;20233;-78
2023/12/24 10:04:45;;;;;;;3.83;1.30;;;;;;;;;;5021376;28;20208;-79
2023/12/24 10:07:10;;;;;;;2.33;1.10;;;;;;;;;;4983171;28;20205;-78
2023/12/24 10:09:43;;;;;;;1.45;0.80;;;;;;;;;;5015586;28;20191;-78
2023/12/24 10:12:09;;;;;;;2.58;1.00;;;;;;;;;;5025915;28;20186;-78
2023/12/24 10:14:36;;;;;;;3.63;1.50;;;;;;;;;;5031162;28;20484;-79
2023/12/24 10:17:03;;;;;;;7.38;1.88;;;;;;;;;;5011845;28;20536;-78
2023/12/24 10:19:30;;;;;;;2.80;1.25;;;;;;;;;;5030012;28;20314;-79
2023/12/24 10:22:14;;;;;;;4.30;1.20;;;;;;;;;;5010795;28;20700;-78
2023/12/24 10:24:41;;;;;;;3.88;1.30;;;;;;;;;;5013573;28;20185;-78
2023/12/24 10:27:11;;;;;;;2.50;1.00;;;;;;;;;;5021402;28;20251;-77
2023/12/24 10:29:41;;;;;;;2.22;1.40;;;;;;;;;;5012613;28;20247;-78
2023/12/24 10:32:10;;;;;;;3.60;1.70;;;;;;;;;;5014425;28;20233;-78
2023/12/24 10:34:37;;;;;;;3.42;1.90;;;;;;;;;;5012705;28;20178;-77
2023/12/24 10:37:17;;;;;;;4.20;1.90;;;;;;;;;;4999696;28;20341;-80
2023/12/24 10:39:43;;;;;;;4.05;1.90;;;;;;;;;;5012613;28;20189;-78
2023/12/24 10:42:08;;;;;;;3.33;2.15;;;;;;;;;;5012160;28;20689;-77
2023/12/24 10:44:34;;;;;;;4.55;2.10;;;;;;;;;;5013395;28;20591;-77
2023/12/24 10:46:59;;;;;;;2.33;2.13;;;;;;;;;;5023068;28;20738;-78
2023/12/24 10:49:25;;;;;;;7.18;2.78;;;;;;;;;;5017915;28;20680;-78
2023/12/24 10:51:50;;;;;;;6.05;2.63;;;;;;;;;;5026578;28;20484;-78
2023/12/24 10:54:16;;;;;;;2.65;1.88;;;;;;;;;;5006280;28;20266;-80
2023/12/24 10:57:21;;;;;;;5.88;2.70;;;;;;;;;;5014143;28;20206;-77
2023/12/24 11:00:15;;;;;;;4.90;2.75;;;;;;;;;;5023108;28;20182;-78
2023/12/24 11:02:45;;;;;;;6.82;3.03;;;;;;;;;;5004579;28;20256;-79
2023/12/24 11:05:11;;;;;;;8.27;3.22;;;;;;;;;;5013278;28;20190;-79
2023/12/24 11:07:49;;;;;;;9.05;3.40;;;;;;;;;;5034633;28;20598;-79
2023/12/24 11:10:56;;;;;;;7.07;3.38;;;;;;;;;;5032126;28;20248;-78
2023/12/24 11:13:34;;;;;;;11.13;4.18;;;;;;;;;;4991057;28;20190;-79
2023/12/24 11:16:00;;;;;;;12.20;4.00;;;;;;;;;;5029854;28;20616;-79
2023/12/24 11:18:46;;;;;;;18.85;4.38;;;;;;;;;;5013715;28;20212;-78
2023/12/24 11:21:13;;;;;;;17.65;5.30;;;;;;;;;;5028394;28;20344;-78
2023/12/24 11:23:40;;;;;;;19.48;5.07;;;;;;;;;;5011599;28;20433;-78
2023/12/24 11:26:29;;;;;;;19.33;5.78;;;;;;;;;;5026558;28;20186;-78
2023/12/24 11:28:54;;;;;;;19.25;5.45;;;;;;;;;;5027463;28;20237;-77
2023/12/24 11:31:26;;;;;;;28.85;6.57;;;;;;;;;;5027204;28;20190;-79
2023/12/24 11:33:54;;;;;;;27.55;6.72;;;;;;;;;;5007728;28;20261;-77
2023/12/24 11:36:21;;;;;;;24.65;6.57;;;;;;;;;;5028205;28;20186;-76
2023/12/24 11:38:48;;;;;;;28.73;6.70;;;;;;;;;;5019771;28;20190;-77
2023/12/24 11:41:20;;;;;;;21.40;6.25;;;;;;;;;;5021452;28;20297;-77
2023/12/24 11:44:00;;;;;;;32.22;7.00;;;;;;;;;;4993215;28;20174;-78
2023/12/24 11:46:28;;;;;;;25.58;6.60;;;;;;;;;;5012070;28;20529;-77
2023/12/24 11:48:56;;;;;;;26.70;6.70;;;;;;;;;;5032570;28;20214;-79
2023/12/24 11:51:23;;;;;;;29.88;7.38;;;;;;;;;;5019148;28;20190;-81
2023/12/24 11:54:06;;;;;;;39.53;6.50;;;;;;;;;;5024452;28;20189;-81
2023/12/24 11:56:32;;;;;;;34.50;5.53;;;;;;;;;;4991584;28;20630;-79
2023/12/24 11:58:59;;;;;;;27.25;5.32;;;;;;;;;;5034194;28;20241;-77
2023/12/24 12:01:27;;;;;;;24.23;6.40;;;;;;;;;;5016560;28;20305;-79
2023/12/24 12:04:05;;;;;;;25.30;4.97;;;;;;;;;;4990203;28;20182;-79
2023/12/24 12:06:33;;;;;;;25.70;4.90;;;;;;;;;;5030135;28;20576;-78
2023/12/24 12:09:03;;;;;;;27.60;4.75;;;;;;;;;;5011030;28;20189;-79
2023/12/24 12:11:29;;;;;;;19.40;5.00;;;;;;;;;;4997401;28;20552;-77
2023/12/24 12:13:55;;;;;;;18.15;3.88;;;;;;;;;;5020283;28;20216;-80
2023/12/24 12:16:20;;;;;;;20.65;4.63;;;;;;;;;;5006845;28;20654;-77
2023/12/24 12:18:46;;;;;;;22.25;3.90;;;;;;;;;;5005587;28;20229;-77
2023/12/24 12:21:11;;;;;;;18.05;4.15;;;;;;;;;;5011080;28;20658;-77
2023/12/24 12:23:40;;;;;;;18.30;4.05;;;;;;;;;;5005955;28;20714;-78
2023/12/24 12:26:06;;;;;;;23.00;3.65;;;;;;;;;;5008831;28;20200;-79
2023/12/24 12:28:33;;;;;;;14.73;3.42;;;;;;;;;;5011489;28;20199;-78
2023/12/24 12:30:59;;;;;;;13.50;3.47;;;;;;;;;;5017418;28;20190;-79
2023/12/24 12:33:24;;;;;;;16.92;3.00;;;;;;;;;;5019068;28;20273;-78
2023/12/24 12:35:50;;;;;;;14.70;2.78;;;;;;;;;;4995252;28;20229;-78
2023/12/24 12:38:15;;;;;;;14.20;3.15;;;;;;;;;;5012392;28;20551;-79
2023/12/24 12:40:41;;;;;;;14.40;3.90;;;;;;;;;;5012106;28;20195;-79
2023/12/24 12:43:08;;;;;;;13.88;2.95;;;;;;;;;;5011504;28;20182;-80
2023/12/24 12:45:34;;;;;;;15.63;3.22;;;;;;;;;;5016929;28;20187;-78
2023/12/24 12:48:00;;;;;;;14.63;3.30;;;;;;;;;;5006638;28;20571;-79
2023/12/24 12:50:25;;;;;;;9.48;2.10;;;;;;;;;;5000934;28;20187;-78
2023/12/24 12:52:51;;;;;;;7.88;1.80;;;;;;;;;;5012560;28;20233;-77
2023/12/24 12:55:19;;;;;;;8.95;1.65;;;;;;;;;;5008045;28;20195;-75
2023/12/24 12:57:44;;;;;;;6.13;1.90;;;;;;;;;;5008979;28;20203;-77
2023/12/24 13:00:30;;;;;;;6.70;1.70;;;;;;;;;;5013822;28;20198;-79
2023/12/24 13:03:06;;;;;;;7.57;1.42;;;;;;;;;;5006254;28;20287;-79
2023/12/24 13:05:32;;;;;;;6.35;1.65;;;;;;;;;;5014718;28;20194;-78
2023/12/24 13:08:00;;;;;;;8.52;2.17;;;;;;;;;;4997143;28;20198;-79
2023/12/24 13:10:33;;;;;;;8.38;2.13;;;;;;;;;;4989722;28;20268;-79
2023/12/24 13:13:20;;;;;;;6.95;1.60;;;;;;;;;;5014116;28;20246;-79
2023/12/24 13:15:46;;;;;;;8.35;1.85;;;;;;;;;;5008074;28;20208;-78
2023/12/24 13:18:30;;;;;;;5.90;1.67;;;;;;;;;;5009087;28;20210;-80
2023/12/24 13:21:00;;;;;;;7.35;2.13;;;;;;;;;;5034782;28;20190;-79
2023/12/24 13:23:26;;;;;;;7.97;2.38;;;;;;;;;;5010204;28;20823;-79
2023/12/24 13:25:55;;;;;;;4.30;1.48;;;;;;;;;;5005871;28;20272;-83
2023/12/24 13:28:21;;;;;;;6.75;1.90;;;;;;;;;;5032860;28;20199;-80
2023/12/24 13:30:47;;;;;;;5.00;1.48;;;;;;;;;;5002655;28;20197;-81
2023/12/24 13:33:13;;;;;;;4.78;1.52;;;;;;;;;;5034568;28;20194;-78
2023/12/24 13:35:42;;;;;;;8.48;1.73;;;;;;;;;;5020050;28;20321;-80
2023/12/24 13:38:28;;;;;;;7.03;1.50;;;;;;;;;;5001001;28;20201;-81
2023/12/24 13:40:53;;;;;;;5.85;1.60;;;;;;;;;;5033620;28;20201;-80
2023/12/24 13:43:19;;;;;;;6.38;1.40;;;;;;;;;;5010899;28;20201;-80
2023/12/24 13:45:45;;;;;;;5.78;1.77;;;;;;;;;;5027245;28;20603;-80
2023/12/24 13:48:11;;;;;;;5.75;1.20;;;;;;;;;;5018826;28;20677;-81
2023/12/24 13:50:38;;;;;;;7.28;1.60;;;;;;;;;;5023676;28;20186;-82
2023/12/24 13:53:04;;;;;;;3.17;1.40;;;;;;;;;;5005587;28;20171;-80
2023/12/24 13:55:31;;;;;;;7.00;2.00;;;;;;;;;;5020462;28;20199;-81
2023/12/24 13:57:57;;;;;;;4.88;2.17;;;;;;;;;;5032089;28;20186;-79
2023/12/24 14:00:23;;;;;;;7.78;1.65;;;;;;;;;;5017023;28;20197;-79
2023/12/24 14:02:49;;;;;;;6.30;1.88;;;;;;;;;;5027415;28;20221;-79
2023/12/24 14:05:15;;;;;;;5.32;2.00;;;;;;;;;;5009831;28;20186;-80
2023/12/24 14:07:44;;;;;;;6.88;1.83;;;;;;;;;;5027791;28;20191;-81
2023/12/24 14:10:13;;;;;;;6.93;1.60;;;;;;;;;;5020636;28;20182;-80
2023/12/24 14:12:39;;;;;;;3.53;1.65;;;;;;;;;;5028384;28;20178;-80
2023/12/24 14:15:09;;;;;;;7.10;2.30;;;;;;;;;;4994253;28;20200;-81
2023/12/24 14:17:35;;;;;;;6.28;1.80;;;;;;;;;;5034541;28;20259;-81
2023/12/24 14:20:03;;;;;;;5.32;2.10;;;;;;;;;;5013647;28;20230;-81
2023/12/24 14:22:30;;;;;;;4.88;1.73;;;;;;;;;;5003621;28;20243;-79
2023/12/24 14:24:55;;;;;;;8.00;1.92;;;;;;;;;;5011850;28;20500;-80
2023/12/24 14:27:21;;;;;;;7.32;1.83;;;;;;;;;;5013644;28;20225;-80
2023/12/24 14:29:46;;;;;;;5.93;1.80;;;;;;;;;;4983043;28;20222;-82
2023/12/24 14:32:12;;;;;;;4.00;1.58;;;;;;;;;;5012242;28;20849;-81
2023/12/24 14:34:38;;;;;;;4.45;1.40;;;;;;;;;;5011138;28;20246;-78
2023/12/24 14:37:03;;;;;;;3.20;1.58;;;;;;;;;;5014456;28;20191;-79
2023/12/24 14:39:29;;;;;;;5.28;1.63;;;;;;;;;;5017637;28;20198;-79